Time,TemperatureF,DewpointF,PressureIn,WindDirection,WindDirectionDegrees,WindSpeedMPH,WindSpeedGustMPH,Humidity,HourlyPrecipIn,Conditions,Clouds,dailyrainin,SoftwareType,DateUTC
2013-07-20 00:55:00,75.9,74.4,29.77,South,177,0.0,0.0,95,0.00,,,0.00,Wunderground v.1.15,2013-07-20 04:55:00,
2013-07-20 01:00:00,75.9,74.0,29.77,South,177,0.0,0.0,94,0.00,,,0.00,Wunderground v.1.15,2013-07-20 05:00:00,
2013-07-20 01:05:00,75.9,74.0,29.77,South,178,0.0,0.0,94,0.00,,,0.00,Wunderground v.1.15,2013-07-20 05:05:00,
2013-07-20 01:10:00,75.9,74.0,29.77,South,177,0.0,0.0,94,0.00,,,0.00,Wunderground v.1.15,2013-07-20 05:10:00,
2013-07-20 01:20:00,75.9,74.4,29.77,South,178,0.0,0.0,95,0.00,,,0.00,Wunderground v.1.15,2013-07-20 05:20:00,
2013-07-20 01:25:00,75.9,74.4,29.77,South,178,0.0,0.0,95,0.00,,,0.00,Wunderground v.1.15,2013-07-20 05:25:00,
2013-07-20 01:30:00,75.9,74.4,29.76,South,178,0.0,0.0,95,0.00,,,0.00,Wunderground v.1.15,2013-07-20 05:30:00,
2013-07-20 01:35:00,76.0,74.5,29.76,South,177,0.0,0.0,95,0.00,,,0.00,Wunderground v.1.15,2013-07-20 05:35:00,
2013-07-20 01:40:00,76.1,74.6,29.76,South,177,0.0,0.0,95,0.00,,,0.00,Wunderground v.1.15,2013-07-20 05:40:00,
2013-07-20 01:45:00,76.1,74.6,29.77,South,177,0.0,0.0,95,0.00,,,0.00,Wunderground v.1.15,2013-07-20 05:45:00,
2013-07-20 01:50:00,76.2,74.7,29.77,South,178,0.0,0.0,95,0.00,,,0.00,Wunderground v.1.15,2013-07-20 05:50:00,
2013-07-20 01:55:00,76.2,74.7,29.77,South,178,0.0,0.0,95,0.00,,,0.00,Wunderground v.1.15,2013-07-20 05:55:00,
2013-07-20 02:00:00,76.2,74.3,29.77,South,177,0.0,1.0,94,0.00,,,0.00,Wunderground v.1.15,2013-07-20 06:00:00,
2013-07-20 02:10:00,76.1,74.2,29.76,South,178,0.0,1.0,94,0.00,,,0.00,Wunderground v.1.15,2013-07-20 06:10:00,
2013-07-20 02:15:00,76.0,74.5,29.76,South,177,0.0,1.0,95,0.00,,,0.00,Wunderground v.1.15,2013-07-20 06:15:00,
2013-07-20 02:25:00,75.9,74.4,29.76,South,178,0.0,1.0,95,0.00,,,0.00,Wunderground v.1.15,2013-07-20 06:25:00,
2013-07-20 02:30:00,75.9,74.4,29.76,South,177,0.0,1.0,95,0.00,,,0.00,Wunderground v.1.15,2013-07-20 06:30:00,
2013-07-20 02:35:00,75.9,74.4,29.76,South,178,0.0,1.0,95,0.00,,,0.00,Wunderground v.1.15,2013-07-20 06:35:00,
2013-07-20 02:40:00,75.9,74.4,29.75,South,177,0.0,1.0,95,0.00,,,0.00,Wunderground v.1.15,2013-07-20 06:40:00,
2013-07-20 02:45:00,76.2,74.7,29.75,South,178,0.0,1.0,95,0.00,,,0.00,Wunderground v.1.15,2013-07-20 06:45:00,
2013-07-20 02:50:00,76.4,74.9,29.75,South,178,0.0,1.0,95,0.00,,,0.00,Wunderground v.1.15,2013-07-20 06:50:00,
2013-07-20 02:55:00,76.5,74.6,29.75,South,178,0.0,1.0,94,0.00,,,0.00,Wunderground v.1.15,2013-07-20 06:55:00,
2013-07-20 03:05:00,76.5,74.6,29.75,South,178,0.0,1.0,94,0.00,,,0.00,Wunderground v.1.15,2013-07-20 07:05:00,
2013-07-20 03:10:00,76.4,74.5,29.75,South,178,0.0,1.0,94,0.00,,,0.00,Wunderground v.1.15,2013-07-20 07:10:00,
2013-07-20 03:15:00,76.4,74.5,29.75,South,177,0.0,1.0,94,0.00,,,0.00,Wunderground v.1.15,2013-07-20 07:15:00,
2013-07-20 03:20:00,76.4,74.5,29.75,South,177,0.0,1.0,94,0.00,,,0.00,Wunderground v.1.15,2013-07-20 07:20:00,
2013-07-20 03:25:00,76.6,74.7,29.75,South,178,0.0,1.0,94,0.00,,,0.00,Wunderground v.1.15,2013-07-20 07:25:00,
2013-07-20 03:30:00,77.0,74.8,29.74,South,178,0.0,1.0,93,0.00,,,0.00,Wunderground v.1.15,2013-07-20 07:30:00,
2013-07-20 03:40:00,76.7,74.5,29.74,South,177,0.0,1.0,93,0.00,,,0.00,Wunderground v.1.15,2013-07-20 07:40:00,
2013-07-20 03:45:00,76.5,74.6,29.75,South,177,0.0,1.0,94,0.00,,,0.00,Wunderground v.1.15,2013-07-20 07:45:00,
2013-07-20 03:50:00,76.4,74.5,29.75,South,178,0.0,1.0,94,0.00,,,0.00,Wunderground v.1.15,2013-07-20 07:50:00,
2013-07-20 03:55:00,76.2,74.3,29.74,South,177,0.0,1.0,94,0.00,,,0.00,Wunderground v.1.15,2013-07-20 07:55:00,
2013-07-20 04:00:00,76.1,74.2,29.74,South,177,0.0,3.0,94,0.00,,,0.00,Wunderground v.1.15,2013-07-20 08:00:00,
2013-07-20 04:10:00,75.8,74.3,29.73,South,177,0.0,3.0,95,0.00,,,0.00,Wunderground v.1.15,2013-07-20 08:10:00,
2013-07-20 04:15:00,75.7,74.2,29.74,South,178,0.0,3.0,95,0.00,,,0.00,Wunderground v.1.15,2013-07-20 08:15:00,
2013-07-20 04:20:00,75.6,74.1,29.74,South,178,0.0,3.0,95,0.00,,,0.00,Wunderground v.1.15,2013-07-20 08:20:00,
2013-07-20 04:25:00,75.4,73.9,29.74,South,177,0.0,3.0,95,0.00,,,0.00,Wunderground v.1.15,2013-07-20 08:25:00,
2013-07-20 04:30:00,75.3,74.1,29.74,South,177,0.0,3.0,96,0.00,,,0.00,Wunderground v.1.15,2013-07-20 08:30:00,
2013-07-20 04:35:00,75.2,74.0,29.73,South,177,0.0,3.0,96,0.00,,,0.00,Wunderground v.1.15,2013-07-20 08:35:00,
2013-07-20 04:40:00,75.0,73.8,29.73,South,177,0.0,3.0,96,0.00,,,0.00,Wunderground v.1.15,2013-07-20 08:40:00,
2013-07-20 04:50:00,74.9,73.7,29.73,South,177,0.0,3.0,96,0.00,,,0.00,Wunderground v.1.15,2013-07-20 08:50:00,
2013-07-20 04:55:00,74.8,73.6,29.73,South,178,0.0,3.0,96,0.00,,,0.00,Wunderground v.1.15,2013-07-20 08:55:00,
2013-07-20 05:00:00,74.7,73.5,29.73,South,177,0.0,0.0,96,0.00,,,0.00,Wunderground v.1.15,2013-07-20 09:00:00,
2013-07-20 05:10:00,74.6,73.7,29.73,South,177,0.0,0.0,97,0.00,,,0.00,Wunderground v.1.15,2013-07-20 09:10:00,
2013-07-20 05:15:00,74.5,73.6,29.73,South,178,0.0,0.0,97,0.00,,,0.00,Wunderground v.1.15,2013-07-20 09:15:00,
2013-07-20 05:25:00,74.4,73.5,29.73,South,178,0.0,0.0,97,0.00,,,0.00,Wunderground v.1.15,2013-07-20 09:25:00,
2013-07-20 05:30:00,74.4,73.5,29.73,South,178,0.0,0.0,97,0.00,,,0.00,Wunderground v.1.15,2013-07-20 09:30:00,
2013-07-20 05:35:00,74.3,73.4,29.73,South,177,0.0,0.0,97,0.00,,,0.00,Wunderground v.1.15,2013-07-20 09:35:00,
2013-07-20 05:40:00,74.2,73.3,29.73,South,177,0.0,0.0,97,0.00,,,0.00,Wunderground v.1.15,2013-07-20 09:40:00,
2013-07-20 05:45:00,74.0,73.1,29.73,South,177,0.0,0.0,97,0.00,,,0.00,Wunderground v.1.15,2013-07-20 09:45:00,
2013-07-20 05:50:00,74.0,73.4,29.73,South,177,0.0,0.0,98,0.00,,,0.00,Wunderground v.1.15,2013-07-20 09:50:00,
2013-07-20 06:00:00,73.9,73.3,29.73,South,177,0.0,0.0,98,0.00,,,0.00,Wunderground v.1.15,2013-07-20 10:00:00,
2013-07-20 06:10:00,73.9,73.3,29.74,South,178,0.0,0.0,98,0.00,,,0.00,Wunderground v.1.15,2013-07-20 10:10:00,
2013-07-20 06:15:00,73.8,73.2,29.73,South,178,0.0,0.0,98,0.00,,,0.00,Wunderground v.1.15,2013-07-20 10:15:00,
2013-07-20 06:20:00,73.8,73.2,29.73,South,178,0.0,0.0,98,0.00,,,0.00,Wunderground v.1.15,2013-07-20 10:20:00,
2013-07-20 06:25:00,73.9,73.3,29.73,South,177,0.0,0.0,98,0.00,,,0.00,Wunderground v.1.15,2013-07-20 10:25:00,
2013-07-20 06:35:00,74.0,73.4,29.74,South,177,0.0,0.0,98,0.00,,,0.00,Wunderground v.1.15,2013-07-20 10:35:00,
2013-07-20 06:40:00,74.1,73.5,29.74,South,178,0.0,0.0,98,0.00,,,0.00,Wunderground v.1.15,2013-07-20 10:40:00,
2013-07-20 06:45:00,74.3,73.7,29.74,South,177,0.0,0.0,98,0.00,,,0.00,Wunderground v.1.15,2013-07-20 10:45:00,
2013-07-20 06:50:00,74.5,73.9,29.74,South,177,0.0,0.0,98,0.00,,,0.00,Wunderground v.1.15,2013-07-20 10:50:00,
2013-07-20 06:55:00,74.8,74.5,29.74,South,177,0.0,0.0,99,0.00,,,0.00,Wunderground v.1.15,2013-07-20 10:55:00,
2013-07-20 07:00:00,75.0,74.4,29.74,South,178,0.0,0.0,98,0.00,,,0.00,Wunderground v.1.15,2013-07-20 11:00:00,
2013-07-20 07:10:00,75.5,75.2,29.75,South,177,0.0,0.0,99,0.00,,,0.00,Wunderground v.1.15,2013-07-20 11:10:00,
2013-07-20 07:15:00,75.8,75.2,29.75,South,177,0.0,0.0,98,0.00,,,0.00,Wunderground v.1.15,2013-07-20 11:15:00,
2013-07-20 07:20:00,76.1,75.5,29.76,South,177,0.0,0.0,98,0.00,,,0.00,Wunderground v.1.15,2013-07-20 11:20:00,
2013-07-20 07:25:00,76.5,75.9,29.76,South,177,0.0,0.0,98,0.00,,,0.00,Wunderground v.1.15,2013-07-20 11:25:00,
2013-07-20 07:30:00,76.9,76.0,29.76,South,177,0.0,0.0,97,0.00,,,0.00,Wunderground v.1.15,2013-07-20 11:30:00,
2013-07-20 07:35:00,77.2,76.0,29.76,South,178,0.0,1.0,96,0.00,,,0.00,Wunderground v.1.15,2013-07-20 11:35:00,
2013-07-20 07:45:00,78.1,76.2,29.75,South,177,0.0,0.0,94,0.00,,,0.00,Wunderground v.1.15,2013-07-20 11:45:00,
2013-07-20 07:50:00,78.6,76.4,29.76,South,177,0.0,0.0,93,0.00,,,0.00,Wunderground v.1.15,2013-07-20 11:50:00,
2013-07-20 07:55:00,78.9,76.4,29.76,South,177,0.0,0.0,92,0.00,,,0.00,Wunderground v.1.15,2013-07-20 11:55:00,
2013-07-20 08:00:00,79.0,76.1,29.76,South,177,0.0,2.0,91,0.00,,,0.00,Wunderground v.1.15,2013-07-20 12:00:00,
2013-07-20 08:10:00,79.4,76.2,29.76,South,177,0.0,2.0,90,0.00,,,0.00,Wunderground v.1.15,2013-07-20 12:10:00,
2013-07-20 08:20:00,79.4,75.5,29.75,South,177,0.0,2.0,88,0.00,,,0.00,Wunderground v.1.15,2013-07-20 12:20:00,
2013-07-20 08:25:00,79.5,75.6,29.76,South,177,0.0,2.0,88,0.00,,,0.00,Wunderground v.1.15,2013-07-20 12:25:00,
2013-07-20 08:30:00,79.4,75.9,29.76,South,177,0.0,2.0,89,0.00,,,0.00,Wunderground v.1.15,2013-07-20 12:30:00,
2013-07-20 08:35:00,79.2,75.7,29.76,South,177,0.0,2.0,89,0.00,,,0.00,Wunderground v.1.15,2013-07-20 12:35:00,
2013-07-20 08:40:00,79.2,76.0,29.76,South,177,0.0,2.0,90,0.00,,,0.00,Wunderground v.1.15,2013-07-20 12:40:00,
2013-07-20 08:50:00,79.4,75.9,29.75,South,177,0.0,2.0,89,0.00,,,0.00,Wunderground v.1.15,2013-07-20 12:50:00,
2013-07-20 08:55:00,79.6,76.1,29.75,South,177,0.0,2.0,89,0.00,,,0.00,Wunderground v.1.15,2013-07-20 12:55:00,
2013-07-20 09:00:00,79.9,75.7,29.75,South,177,0.0,1.0,87,0.00,,,0.00,Wunderground v.1.15,2013-07-20 13:00:00,
2013-07-20 09:10:00,80.8,75.9,29.75,South,178,0.0,1.0,85,0.00,,,0.00,Wunderground v.1.15,2013-07-20 13:10:00,
2013-07-20 09:15:00,81.0,76.1,29.75,South,177,0.0,1.0,85,0.00,,,0.00,Wunderground v.1.15,2013-07-20 13:15:00,
2013-07-20 09:25:00,81.9,76.2,29.74,South,178,0.0,1.0,83,0.00,,,0.00,Wunderground v.1.15,2013-07-20 13:25:00,
2013-07-20 09:30:00,82.2,76.2,29.74,South,177,1.0,1.0,82,0.00,,,0.00,Wunderground v.1.15,2013-07-20 13:30:00,
2013-07-20 09:35:00,82.4,76.3,29.74,South,178,1.0,1.0,82,0.00,,,0.00,Wunderground v.1.15,2013-07-20 13:35:00,
2013-07-20 09:40:00,82.6,76.2,29.73,South,177,0.0,1.0,81,0.00,,,0.00,Wunderground v.1.15,2013-07-20 13:40:00,
2013-07-20 09:45:00,82.8,76.7,29.73,South,177,0.0,1.0,82,0.00,,,0.00,Wunderground v.1.15,2013-07-20 13:45:00,
2013-07-20 09:50:00,83.0,76.6,29.73,South,178,0.0,1.0,81,0.00,,,0.00,Wunderground v.1.15,2013-07-20 13:50:00,
2013-07-20 10:00:00,82.8,76.0,29.73,South,177,0.0,5.0,80,0.00,,,0.00,Wunderground v.1.15,2013-07-20 14:00:00,
2013-07-20 10:10:00,82.9,76.5,29.73,South,178,0.0,5.0,81,0.00,,,0.00,Wunderground v.1.15,2013-07-20 14:10:00,
2013-07-20 10:15:00,83.5,76.7,29.73,South,177,0.0,5.0,80,0.00,,,0.00,Wunderground v.1.15,2013-07-20 14:15:00,
2013-07-20 10:20:00,83.8,76.2,29.73,South,177,0.0,5.0,78,0.00,,,0.00,Wunderground v.1.15,2013-07-20 14:20:00,
2013-07-20 10:25:00,84.5,77.3,29.73,South,177,0.0,5.0,79,0.00,,,0.00,Wunderground v.1.15,2013-07-20 14:25:00,
2013-07-20 10:35:00,85.6,76.8,29.74,South,178,0.0,5.0,75,0.00,,,0.00,Wunderground v.1.15,2013-07-20 14:35:00,
2013-07-20 10:40:00,85.5,77.1,29.74,South,177,0.0,5.0,76,0.00,,,0.00,Wunderground v.1.15,2013-07-20 14:40:00,
2013-07-20 10:45:00,85.4,76.6,29.74,South,178,0.0,5.0,75,0.00,,,0.00,Wunderground v.1.15,2013-07-20 14:45:00,
2013-07-20 10:50:00,85.3,77.3,29.74,South,177,0.0,5.0,77,0.00,,,0.00,Wunderground v.1.15,2013-07-20 14:50:00,
2013-07-20 10:55:00,85.4,76.6,29.73,South,177,0.0,5.0,75,0.00,,,0.00,Wunderground v.1.15,2013-07-20 14:55:00,
2013-07-20 11:00:00,85.4,77.0,29.73,South,177,0.0,3.0,76,0.00,,,0.00,Wunderground v.1.15,2013-07-20 15:00:00,
2013-07-20 11:10:00,85.6,76.4,29.73,South,177,1.0,1.0,74,0.00,,,0.00,Wunderground v.1.15,2013-07-20 15:10:00,
2013-07-20 11:15:00,85.8,76.5,29.73,South,177,1.0,3.0,74,0.00,,,0.00,Wunderground v.1.15,2013-07-20 15:15:00,
2013-07-20 11:20:00,85.7,76.9,29.73,South,178,0.0,3.0,75,0.00,,,0.00,Wunderground v.1.15,2013-07-20 15:20:00,
2013-07-20 11:25:00,85.6,76.4,29.73,South,177,0.0,3.0,74,0.00,,,0.00,Wunderground v.1.15,2013-07-20 15:25:00,
2013-07-20 11:30:00,85.7,76.5,29.73,South,177,1.0,3.0,74,0.00,,,0.00,Wunderground v.1.15,2013-07-20 15:30:00,
2013-07-20 11:35:00,86.3,77.0,29.72,South,177,1.0,3.0,74,0.00,,,0.00,Wunderground v.1.15,2013-07-20 15:35:00,
2013-07-20 11:45:00,87.2,76.2,29.72,South,177,1.0,3.0,70,0.00,,,0.00,Wunderground v.1.15,2013-07-20 15:45:00,
2013-07-20 11:50:00,87.7,76.7,29.72,ENE,78,1.0,1.0,70,0.00,,,0.00,Wunderground v.1.15,2013-07-20 15:50:00,
2013-07-20 11:55:00,88.4,76.9,29.71,WSW,239,0.0,3.0,69,0.00,,,0.00,Wunderground v.1.15,2013-07-20 15:55:00,
2013-07-20 12:00:00,89.2,78.6,29.71,South,177,0.0,4.0,71,0.00,,,0.00,Wunderground v.1.15,2013-07-20 16:00:00,
2013-07-20 12:10:00,89.6,76.7,29.71,NE,44,1.0,4.0,66,0.00,,,0.00,Wunderground v.1.15,2013-07-20 16:10:00,
2013-07-20 12:15:00,89.8,78.3,29.71,North,349,1.0,4.0,69,0.00,,,0.00,Wunderground v.1.15,2013-07-20 16:15:00,
2013-07-20 12:20:00,89.8,77.8,29.71,South,178,1.0,4.0,68,0.00,,,0.00,Wunderground v.1.15,2013-07-20 16:20:00,
2013-07-20 12:25:00,89.6,77.6,29.71,WNW,295,1.0,4.0,68,0.00,,,0.00,Wunderground v.1.15,2013-07-20 16:25:00,
2013-07-20 12:30:00,90.1,77.7,29.71,South,177,1.0,4.0,67,0.00,,,0.00,Wunderground v.1.15,2013-07-20 16:30:00,
2013-07-20 12:35:00,90.4,78.8,29.71,South,177,0.0,4.0,69,0.00,,,0.00,Wunderground v.1.15,2013-07-20 16:35:00,
2013-07-20 12:40:00,91.1,77.7,29.71,South,177,0.0,4.0,65,0.00,,,0.00,Wunderground v.1.15,2013-07-20 16:40:00,
2013-07-20 12:45:00,90.9,77.0,29.71,South,176,1.0,4.0,64,0.00,,,0.00,Wunderground v.1.15,2013-07-20 16:45:00,
2013-07-20 12:55:00,90.9,78.4,29.70,South,176,1.0,4.0,67,0.00,,,0.00,Wunderground v.1.15,2013-07-20 16:55:00,
2013-07-20 13:00:00,91.1,77.7,29.70,South,176,0.0,5.0,65,0.00,,,0.00,Wunderground v.1.15,2013-07-20 17:00:00,
2013-07-20 13:10:00,91.6,77.7,29.69,South,176,1.0,5.0,64,0.00,,,0.00,Wunderground v.1.15,2013-07-20 17:10:00,
2013-07-20 13:15:00,91.6,78.2,29.69,South,176,1.0,5.0,65,0.00,,,0.00,Wunderground v.1.15,2013-07-20 17:15:00,
2013-07-20 13:20:00,91.8,78.4,29.69,NNE,25,0.0,5.0,65,0.00,,,0.00,Wunderground v.1.15,2013-07-20 17:20:00,
2013-07-20 13:30:00,91.3,77.4,29.69,SW,228,1.0,1.0,64,0.00,,,0.00,Wunderground v.1.15,2013-07-20 17:30:00,
2013-07-20 13:35:00,91.1,77.2,29.69,South,178,1.0,5.0,64,0.00,,,0.00,Wunderground v.1.15,2013-07-20 17:35:00,
2013-07-20 13:40:00,90.8,76.9,29.69,South,177,1.0,1.0,64,0.00,,,0.00,Wunderground v.1.15,2013-07-20 17:40:00,
2013-07-20 13:45:00,90.7,77.3,29.69,South,176,1.0,5.0,65,0.00,,,0.00,Wunderground v.1.15,2013-07-20 17:45:00,
2013-07-20 13:50:00,90.9,77.5,29.69,South,191,1.0,1.0,65,0.00,,,0.00,Wunderground v.1.15,2013-07-20 17:50:00,
2013-07-20 14:00:00,91.6,78.6,29.69,South,174,1.0,9.0,66,0.00,,,0.00,Wunderground v.1.15,2013-07-20 18:00:00,
2013-07-20 14:10:00,91.7,75.8,29.68,South,178,1.0,9.0,60,0.00,,,0.00,Wunderground v.1.15,2013-07-20 18:10:00,
2013-07-20 14:15:00,91.4,77.0,29.68,South,177,1.0,9.0,63,0.00,,,0.00,Wunderground v.1.15,2013-07-20 18:15:00,
2013-07-20 14:25:00,91.3,76.0,29.68,SW,220,1.0,9.0,61,0.00,,,0.00,Wunderground v.1.15,2013-07-20 18:25:00,
2013-07-20 14:30:00,91.3,75.5,29.68,South,178,1.0,9.0,60,0.00,,,0.00,Wunderground v.1.15,2013-07-20 18:30:00,
2013-07-20 14:40:00,91.8,76.4,29.68,West,273,1.0,9.0,61,0.00,,,0.00,Wunderground v.1.15,2013-07-20 18:40:00,
2013-07-20 14:45:00,91.8,77.4,29.68,South,179,2.0,9.0,63,0.00,,,0.00,Wunderground v.1.15,2013-07-20 18:45:00,
2013-07-20 14:55:00,91.9,74.5,29.67,South,177,1.0,9.0,57,0.00,,,0.00,Wunderground v.1.15,2013-07-20 18:55:00,
2013-07-20 15:05:00,91.9,75.5,29.67,South,177,1.0,8.0,59,0.00,,,0.00,Wunderground v.1.15,2013-07-20 19:05:00,
2013-07-20 15:10:00,91.6,74.7,29.67,South,177,2.0,8.0,58,0.00,,,0.00,Wunderground v.1.15,2013-07-20 19:10:00,
2013-07-20 15:20:00,91.4,75.6,29.68,South,177,1.0,8.0,60,0.00,,,0.00,Wunderground v.1.15,2013-07-20 19:20:00,
2013-07-20 15:25:00,92.0,77.1,29.68,South,177,1.0,8.0,62,0.00,,,0.00,Wunderground v.1.15,2013-07-20 19:25:00,
2013-07-20 15:30:00,90.8,75.5,29.69,WNW,295,1.0,8.0,61,0.00,,,0.00,Wunderground v.1.15,2013-07-20 19:30:00,
2013-07-20 15:35:00,88.1,73.0,29.69,South,175,2.0,8.0,61,0.00,,,0.00,Wunderground v.1.15,2013-07-20 19:35:00,
2013-07-20 15:45:00,82.8,71.6,29.68,South,175,1.0,8.0,69,0.00,,,0.00,Wunderground v.1.15,2013-07-20 19:45:00,
2013-07-20 15:55:00,81.7,72.6,29.68,South,174,0.0,8.0,74,0.00,,,0.00,Wunderground v.1.15,2013-07-20 19:55:00,
2013-07-20 16:00:00,81.1,73.2,29.68,South,174,0.0,11.0,77,0.00,,,0.00,Wunderground v.1.15,2013-07-20 20:00:00,
2013-07-20 16:10:00,79.9,75.7,29.67,South,174,0.0,11.0,87,0.00,,,0.01,Wunderground v.1.15,2013-07-20 20:10:00,
2013-07-20 16:20:00,81.2,78.3,29.67,South,174,0.0,11.0,91,0.00,,,0.01,Wunderground v.1.15,2013-07-20 20:20:00,
2013-07-20 16:30:00,81.2,78.0,29.68,South,174,0.0,11.0,90,0.00,,,0.01,Wunderground v.1.15,2013-07-20 20:30:00,
2013-07-20 16:40:00,80.6,77.7,29.68,South,174,0.0,11.0,91,0.00,,,0.01,Wunderground v.1.15,2013-07-20 20:40:00,
2013-07-20 16:45:00,80.4,77.9,29.69,South,175,0.0,11.0,92,0.00,,,0.01,Wunderground v.1.15,2013-07-20 20:45:00,
2013-07-20 16:50:00,80.0,77.5,29.70,South,175,0.0,11.0,92,0.00,,,0.01,Wunderground v.1.15,2013-07-20 20:50:00,
2013-07-20 16:55:00,79.6,77.4,29.69,South,174,0.0,11.0,93,0.00,,,0.01,Wunderground v.1.15,2013-07-20 20:55:00,
2013-07-20 17:00:00,79.5,77.6,29.70,South,175,0.0,0.0,94,0.00,,,0.01,Wunderground v.1.15,2013-07-20 21:00:00,
2013-07-20 17:05:00,79.4,77.5,29.69,South,174,0.0,0.0,94,0.00,,,0.01,Wunderground v.1.15,2013-07-20 21:05:00,
2013-07-20 17:15:00,80.3,79.1,29.69,South,174,0.0,0.0,96,0.00,,,0.01,Wunderground v.1.15,2013-07-20 21:15:00,
2013-07-20 17:20:00,81.4,79.8,29.69,South,174,0.0,0.0,95,0.00,,,0.01,Wunderground v.1.15,2013-07-20 21:20:00,
2013-07-20 17:30:00,84.3,80.7,29.70,South,174,0.0,0.0,89,0.00,,,0.01,Wunderground v.1.15,2013-07-20 21:30:00,
2013-07-20 17:35:00,85.2,80.5,29.70,South,174,0.0,0.0,86,0.00,,,0.01,Wunderground v.1.15,2013-07-20 21:35:00,
2013-07-20 17:40:00,85.5,80.5,29.70,South,174,0.0,0.0,85,0.00,,,0.01,Wunderground v.1.15,2013-07-20 21:40:00,
2013-07-20 17:45:00,86.1,79.2,29.70,South,174,0.0,0.0,80,0.00,,,0.01,Wunderground v.1.15,2013-07-20 21:45:00,
2013-07-20 17:55:00,85.7,80.3,29.70,South,174,0.0,1.0,84,0.00,,,0.01,Wunderground v.1.15,2013-07-20 21:55:00,
2013-07-20 18:00:00,86.1,80.0,29.70,South,174,0.0,1.0,82,0.00,,,0.01,Wunderground v.1.15,2013-07-20 22:00:00,
2013-07-20 18:10:00,86.0,78.3,29.70,South,174,0.0,1.0,78,0.00,,,0.01,Wunderground v.1.15,2013-07-20 22:10:00,
2013-07-20 18:15:00,85.2,78.7,29.70,South,174,0.0,1.0,81,0.00,,,0.01,Wunderground v.1.15,2013-07-20 22:15:00,
2013-07-20 18:20:00,84.1,77.3,29.70,South,174,0.0,1.0,80,0.00,,,0.01,Wunderground v.1.15,2013-07-20 22:20:00,
2013-07-20 18:25:00,83.6,77.9,29.70,South,174,0.0,1.0,83,0.00,,,0.01,Wunderground v.1.15,2013-07-20 22:25:00,
2013-07-20 18:35:00,83.2,77.5,29.70,South,175,0.0,1.0,83,0.00,,,0.01,Wunderground v.1.15,2013-07-20 22:35:00,
2013-07-20 18:40:00,82.6,77.3,29.70,South,174,0.0,1.0,84,0.00,,,0.01,Wunderground v.1.15,2013-07-20 22:40:00,
2013-07-20 18:45:00,82.0,77.4,29.70,South,174,0.0,1.0,86,0.00,,,0.01,Wunderground v.1.15,2013-07-20 22:45:00,
2013-07-20 18:55:00,81.1,77.2,29.71,South,175,0.0,1.0,88,0.00,,,0.01,Wunderground v.1.15,2013-07-20 22:55:00,
2013-07-20 19:00:00,80.7,76.8,29.71,South,174,0.0,1.0,88,0.00,,,0.01,Wunderground v.1.15,2013-07-20 23:00:00,
2013-07-20 19:10:00,80.0,76.8,29.71,South,175,0.0,1.0,90,0.00,,,0.01,Wunderground v.1.15,2013-07-20 23:10:00,
2013-07-20 19:15:00,79.5,76.3,29.71,South,174,0.0,1.0,90,0.00,,,0.01,Wunderground v.1.15,2013-07-20 23:15:00,
2013-07-20 19:20:00,79.1,76.2,29.72,South,174,0.0,1.0,91,0.00,,,0.01,Wunderground v.1.15,2013-07-20 23:20:00,
2013-07-20 19:30:00,78.2,75.7,29.72,South,175,0.0,1.0,92,0.00,,,0.01,Wunderground v.1.15,2013-07-20 23:30:00,
2013-07-20 19:35:00,78.0,75.8,29.72,South,174,0.0,1.0,93,0.00,,,0.01,Wunderground v.1.15,2013-07-20 23:35:00,
2013-07-20 19:45:00,77.7,75.8,29.73,South,174,0.0,1.0,94,0.00,,,0.01,Wunderground v.1.15,2013-07-20 23:45:00,
2013-07-20 19:50:00,77.5,75.6,29.73,South,175,0.0,1.0,94,0.00,,,0.01,Wunderground v.1.15,2013-07-20 23:50:00,
2013-07-20 20:00:00,77.4,75.9,29.73,South,175,0.0,0.0,95,0.00,,,0.01,Wunderground v.1.15,2013-07-21 00:00:00,
2013-07-20 20:05:00,77.4,75.9,29.73,South,174,0.0,0.0,95,0.00,,,0.01,Wunderground v.1.15,2013-07-21 00:05:00,
2013-07-20 20:15:00,77.1,75.6,29.73,South,174,0.0,0.0,95,0.00,,,0.01,Wunderground v.1.15,2013-07-21 00:15:00,
2013-07-20 20:20:00,76.9,75.4,29.74,South,175,0.0,0.0,95,0.00,,,0.01,Wunderground v.1.15,2013-07-21 00:20:00,
2013-07-20 20:30:00,76.6,75.1,29.74,South,174,0.0,0.0,95,0.00,,,0.01,Wunderground v.1.15,2013-07-21 00:30:00,
2013-07-20 20:40:00,76.4,75.2,29.76,South,174,0.0,0.0,96,0.00,,,0.01,Wunderground v.1.15,2013-07-21 00:40:00,
2013-07-20 20:45:00,76.3,75.1,29.76,South,174,0.0,0.0,96,0.00,,,0.01,Wunderground v.1.15,2013-07-21 00:45:00,
2013-07-20 20:50:00,76.1,74.6,29.76,South,174,0.0,0.0,95,0.00,,,0.01,Wunderground v.1.15,2013-07-21 00:50:00,
2013-07-20 21:00:00,75.8,74.3,29.77,South,174,0.0,0.0,95,0.00,,,0.01,Wunderground v.1.15,2013-07-21 01:00:00,
2013-07-20 21:05:00,75.9,74.4,29.78,South,175,0.0,0.0,95,0.00,,,0.01,Wunderground v.1.15,2013-07-21 01:05:00,
2013-07-20 21:15:00,75.5,74.0,29.78,South,174,0.0,0.0,95,0.00,,,0.01,Wunderground v.1.15,2013-07-21 01:15:00,
2013-07-20 21:20:00,75.3,73.8,29.78,South,174,0.0,0.0,95,0.00,,,0.01,Wunderground v.1.15,2013-07-21 01:20:00,
2013-07-20 21:25:00,75.3,73.8,29.78,South,174,0.0,0.0,95,0.00,,,0.01,Wunderground v.1.15,2013-07-21 01:25:00,
2013-07-20 21:30:00,75.1,73.6,29.78,South,174,0.0,0.0,95,0.00,,,0.01,Wunderground v.1.15,2013-07-21 01:30:00,
2013-07-20 21:40:00,74.8,73.3,29.78,South,174,0.0,0.0,95,0.00,,,0.01,Wunderground v.1.15,2013-07-21 01:40:00,
2013-07-20 21:50:00,74.2,72.7,29.78,South,174,0.0,0.0,95,0.00,,,0.01,Wunderground v.1.15,2013-07-21 01:50:00,
2013-07-20 21:55:00,74.1,72.6,29.79,South,174,0.0,0.0,95,0.00,,,0.01,Wunderground v.1.15,2013-07-21 01:55:00,
2013-07-20 22:00:00,73.8,72.3,29.79,South,174,0.0,0.0,95,0.00,,,0.01,Wunderground v.1.15,2013-07-21 02:00:00,
2013-07-20 22:05:00,73.5,72.0,29.79,South,174,0.0,0.0,95,0.00,,,0.01,Wunderground v.1.15,2013-07-21 02:05:00,
2013-07-20 22:15:00,73.1,71.9,29.79,South,174,0.0,0.0,96,0.00,,,0.01,Wunderground v.1.15,2013-07-21 02:15:00,
2013-07-20 22:25:00,72.7,71.5,29.79,South,174,0.0,0.0,96,0.00,,,0.01,Wunderground v.1.15,2013-07-21 02:25:00,
2013-07-20 22:30:00,72.5,71.3,29.79,South,174,0.0,0.0,96,0.00,,,0.01,Wunderground v.1.15,2013-07-21 02:30:00,
2013-07-20 22:35:00,72.3,71.1,29.79,South,174,0.0,0.0,96,0.00,,,0.01,Wunderground v.1.15,2013-07-21 02:35:00,
2013-07-20 22:40:00,72.1,70.9,29.79,South,174,0.0,0.0,96,0.00,,,0.01,Wunderground v.1.15,2013-07-21 02:40:00,
2013-07-20 22:50:00,71.7,70.5,29.79,South,174,0.0,0.0,96,0.00,,,0.01,Wunderground v.1.15,2013-07-21 02:50:00,
2013-07-20 23:00:00,71.4,70.2,29.79,South,174,0.0,0.0,96,0.00,,,0.01,Wunderground v.1.15,2013-07-21 03:00:00,
2013-07-20 23:10:00,71.2,70.3,29.80,South,174,0.0,0.0,97,0.00,,,0.01,Wunderground v.1.15,2013-07-21 03:10:00,
2013-07-20 23:15:00,71.0,69.8,29.80,South,174,0.0,0.0,96,0.00,,,0.01,Wunderground v.1.15,2013-07-21 03:15:00,
2013-07-20 23:20:00,70.8,69.6,29.81,South,174,0.0,0.0,96,0.00,,,0.01,Wunderground v.1.15,2013-07-21 03:20:00,
2013-07-20 23:25:00,70.6,69.4,29.81,South,174,0.0,0.0,96,0.00,,,0.01,Wunderground v.1.15,2013-07-21 03:25:00,
2013-07-20 23:30:00,70.4,69.5,29.81,South,174,0.0,0.0,97,0.00,,,0.01,Wunderground v.1.15,2013-07-21 03:30:00,
2013-07-20 23:35:00,70.4,69.5,29.81,South,174,0.0,0.0,97,0.00,,,0.01,Wunderground v.1.15,2013-07-21 03:35:00,
2013-07-20 23:45:00,70.2,69.3,29.82,South,174,0.0,0.0,97,0.00,,,0.01,Wunderground v.1.15,2013-07-21 03:45:00,
2013-07-20 23:50:00,70.0,69.1,29.82,South,174,0.0,0.0,97,0.00,,,0.01,Wunderground v.1.15,2013-07-21 03:50:00,
2013-07-20 23:55:00,69.9,69.0,29.82,South,174,0.0,0.0,97,0.00,,,0.01,Wunderground v.1.15,2013-07-21 03:55:00,